Latest Weather Observations for Norseman Airport

IDW60801

Issued at 4:05 pm WST Saturday 29 November 2014 (issued every 30 minutes, with the page automatically refreshed every 10 minutes)

About weather observations | Map of weather stations | Latest weather observations for WA | Other Formats
Station Details ID: 012009 Name: NORSEMAN AERO Lat: -32.21 Lon: 121.75 Height: 262.5 m
Data from the previous 72 hours. | See also: Recent months at Norseman Airport
Date/Time
WST
Temp
°C
App
Temp
°C
Dew
Point
Rel
Hum
%
Delta-T
°C
Wind Press
QNH
hPa
Press
MSL
hPa
Rain
since 9 am
mm
Dir
 
Spd
km/h
Gust
km/h
Spd
kts
Gust
kts
29/04:00pm 25.7 21.5 12.5 44 7.7 S 26 32 14 17 1010.0 1009.1 0.0
29/03:30pm 26.5 22.7 12.5 41 8.2 S 24 35 13 19 1009.9 1009.0 0.0
29/03:00pm 26.6 22.4 9.9 35 9.4 SSW 22 30 12 16 1010.0 1009.1 0.0
29/02:30pm 27.0 22.3 9.4 33 9.8 S 24 32 13 17 1010.0 1009.1 0.0
29/02:00pm 27.1 22.5 9.5 33 9.9 WSW 24 37 13 20 1010.2 1009.3 0.0
29/01:30pm 26.0 22.1 9.4 35 9.2 SW 20 32 11 17 1010.4 1009.5 0.0
29/01:00pm 26.0 22.0 10.6 38 8.7 SSW 22 32 12 17 1010.6 1009.7 0.0
29/12:30pm 26.8 21.9 11.3 38 8.9 W 28 35 15 19 1010.7 1009.8 0.0
29/12:00pm 26.4 22.1 10.9 38 8.9 SW 24 39 13 21 1010.9 1010.0 0.0
29/11:30am 24.8 21.3 12.1 45 7.3 WSW 22 30 12 16 1011.3 1010.3 0.0
29/11:00am 24.1 21.5 13.9 53 6.1 WSW 20 35 11 19 1011.5 1010.5 0.0
29/10:30am 23.6 21.4 14.3 56 5.5 SW 19 30 10 16 1011.8 1010.8 0.0
29/10:00am 22.4 20.0 14.5 61 4.7 WSW 20 30 11 16 1012.1 1011.2 0.0
29/09:30am 21.1 19.7 14.5 66 3.9 SSW 15 24 8 13 1012.3 1011.4 0.0
29/09:00am 20.2 17.9 14.6 70 3.3 SSW 20 30 11 16 1012.4 1011.5 0.8
29/08:30am 19.3 17.0 14.6 74 2.8 SSW 20 26 11 14 1012.5 1011.6 0.8
29/08:00am 18.4 16.2 14.5 78 2.3 SSW 19 24 10 13 1012.6 1011.7 0.8
29/07:30am 17.6 14.9 14.5 82 1.8 S 22 28 12 15 1012.5 1011.6 0.8
29/07:00am 17.1 16.2 16.9 99 0.1 SW 17 22 9 12 1012.5 1011.6 0.8
29/06:30am 15.8 14.5 15.8 100 0.0 SW 17 20 9 11 1012.6 1011.7 0.8
29/06:00am 15.1 13.9 15.1 100 0.0 WSW 15 17 8 9 1012.3 1011.4 0.8
29/05:30am 14.5 12.7 14.5 100 0.0 SSW 17 24 9 13 1012.1 1011.2 0.8
29/05:00am 13.8 11.4 13.8 100 0.0 SW 19 28 10 15 1011.9 1010.9 0.8
29/04:30am 13.5 10.4 13.5 100 0.0 SW 22 26 12 14 1011.5 1010.5 0.8
29/04:00am 12.7 11.5 12.7 100 0.0 SW 11 15 6 8 1011.0 1010.1 0.8
29/03:30am 12.4 11.8 12.4 100 0.0 SSW 7 9 4 5 1010.5 1009.6 0.8
29/03:00am 12.5 12.0 12.5 100 0.0 SW 7 9 4 5 1010.2 1009.3 0.8
29/02:30am 13.3 12.6 13.3 100 0.0 S 9 11 5 6 1009.9 1009.0 0.8
29/02:00am 12.9 13.4 12.9 100 0.0 SSW 2 9 1 5 1010.0 1009.1 0.8
29/01:30am 13.4 14.5 13.4 100 0.0 CALM 0 0 0 0 1010.1 1009.2 0.8
29/01:00am 13.9 15.1 13.9 100 0.0 CALM 0 0 0 0 1010.1 1009.2 0.8
29/12:30am 13.6 13.9 13.4 99 0.1 SSW 4 9 2 5 1010.1 1009.2 0.8
29/12:00am 14.2 13.8 14.0 99 0.1 SW 9 11 5 6 1010.0 1009.1 0.8
 
Date/Time
WST
Temp
°C
App
Temp
°C
Dew
Point
Rel
Hum
%
Delta-T
°C
Wind Press
QNH
hPa
Press
MSL
hPa
Rain
since 9 am
mm
Dir
 
Spd
km/h
Gust
km/h
Spd
kts
Gust
kts
28/11:30pm 14.6 14.7 14.4 99 0.1 SSW 7 9 4 5 1010.2 1009.3 0.8
28/11:00pm 15.1 14.8 14.5 96 0.3 S 9 11 5 6 1010.2 1009.3 0.8
28/10:30pm 16.2 17.4 14.9 92 0.8 SW 2 7 1 4 1010.3 1009.4 0.8
28/10:00pm 16.4 16.2 14.6 89 1.0 WSW 9 11 5 6 1010.3 1009.4 0.8
28/09:30pm 17.8 19.2 14.5 81 1.9 CALM 0 2 0 1 1010.3 1009.4 0.8
28/09:00pm 18.3 18.4 14.4 78 2.3 S 7 11 4 6 1010.0 1009.1 0.8
28/08:30pm 19.1 17.7 14.4 74 2.8 S 15 20 8 11 1009.7 1008.8 0.8
28/08:00pm 20.2 17.4 14.3 69 3.5 S 22 33 12 18 1009.4 1008.5 0.8
28/07:30pm 20.5 22.9 17.1 81 2.1 CALM 0 0 0 0 1009.3 1008.4 0.8
28/07:00pm 21.3 23.0 17.1 77 2.6 SSW 4 11 2 6 1009.2 1008.3 0.8
28/06:30pm 22.9 24.7 17.4 71 3.4 SSW 4 7 2 4 1008.4 1007.4 0.8
28/06:00pm 23.2 22.4 17.2 69 3.7 SW 17 20 9 11 1009.4 1008.5 0.8
28/05:30pm 24.0 23.0 16.5 63 4.6 SW 17 24 9 13 1008.8 1007.9 0.8
28/05:00pm 25.4 26.1 17.1 60 5.2 SSW 9 13 5 7 1008.0 1007.0 0.8
28/04:30pm 25.3 25.4 17.5 62 4.9 SSW 13 19 7 10 1007.4 1006.4 0.8
28/04:00pm 24.6 23.3 16.8 62 4.9 SSW 19 26 10 14 1007.2 1006.2 0.8
28/03:30pm 24.5 24.0 17.0 63 4.7 S 15 22 8 12 1006.8 1005.9 0.8
28/03:00pm 24.4 23.5 16.9 63 4.7 S 17 24 9 13 1006.9 1006.0 0.8
28/02:30pm 24.0 22.6 16.5 63 4.6 SSW 19 24 10 13 1006.7 1005.8 0.8
28/02:00pm 24.1 23.6 16.9 64 4.5 S 15 19 8 10 1007.7 1006.7 0.8
28/01:30pm 25.2 24.3 16.9 60 5.2 S 17 24 9 13 1007.2 1006.2 0.8
28/01:00pm 24.5 23.1 17.0 63 4.7 SSE 20 28 11 15 1007.0 1006.1 0.8
28/12:30pm 23.5 22.3 17.0 67 4.0 S 19 28 10 15 1007.6 1006.6 0.8
28/12:00pm 22.3 21.1 17.4 74 3.1 S 20 28 11 15 1008.2 1007.2 0.8
28/11:30am 19.7 19.5 17.5 87 1.4 SSE 15 24 8 13 1008.2 1007.2 0.8
28/11:00am 19.8 18.8 15.7 77 2.5 SSE 15 22 8 12 1009.6 1008.7 0.2
28/10:30am 21.5 19.1 15.3 68 3.7 SSW 22 32 12 17 1009.9 1009.0 0.0
28/10:00am 23.4 19.3 16.0 63 4.5 SW 32 39 17 21 1009.5 1008.6 0.0
28/09:30am 24.2 21.7 16.2 61 4.9 SW 24 35 13 19 1009.6 1008.7 0.0
28/09:00am 23.5 22.8 16.5 65 4.3 WSW 15 20 8 11 1009.8 1008.9 5.6
28/08:30am 24.5 20.4 16.0 59 5.2 N 32 41 17 22 1008.6 1007.6 5.6
28/08:00am 23.7 20.6 16.5 64 4.5 N 28 33 15 18 1008.6 1007.6 5.6
28/07:30am 22.8 21.3 16.8 69 3.7 N 20 28 11 15 1009.0 1008.1 5.6
28/07:00am 21.6 19.5 15.2 67 3.8 N 20 26 11 14 1009.1 1008.2 5.6
28/06:30am 19.9 19.1 15.1 74 2.9 ENE 13 17 7 9 1009.1 1008.2 5.6
28/06:00am 18.5 18.3 14.8 79 2.2 ENE 9 15 5 8 1009.9 1009.0 5.6
28/05:30am 18.6 16.9 14.7 78 2.3 NE 17 24 9 13 1009.8 1008.9 5.6
28/05:00am 17.6 17.0 15.6 88 1.2 N 13 17 7 9 1010.1 1009.2 5.6
28/04:30am 17.6 16.6 15.6 88 1.2 NNE 15 19 8 10 1010.2 1009.3 5.4
28/04:00am 17.9 17.0 14.8 82 1.8 NNE 13 20 7 11 1009.8 1008.9 5.4
28/03:30am 17.7 17.0 15.5 87 1.3 ENE 13 19 7 10 1009.8 1008.9 5.4
28/03:00am 17.9 18.0 15.5 86 1.4 NNE 9 11 5 6 1010.5 1009.6 5.4
28/02:30am 18.6 18.4 14.7 78 2.3 SSW 9 13 5 7 1010.7 1009.8 5.4
28/02:00am 19.3 16.9 14.3 73 2.9 E 20 30 11 16 1009.5 1008.6 5.4
28/01:30am 18.9 17.9 14.6 76 2.5 ENE 13 20 7 11 1010.6 1009.7 5.4
28/01:00am 17.7 17.3 15.3 86 1.4 E 11 15 6 8 1011.6 1010.6 5.4
28/12:30am 18.0 15.2 15.3 84 1.6 E 24 35 13 19 1011.4 1010.4 5.4
28/12:01am 17.6 14.2 15.9 90 1.0 E 28 46 15 25 1011.4 1010.4 5.4
28/12:00am 17.6 14.2 15.9 90 1.0 E 28 41 15 22 1011.6 1010.6 5.4
 
Date/Time
WST
Temp
°C
App
Temp
°C
Dew
Point
Rel
Hum
%
Delta-T
°C
Wind Press
QNH
hPa
Press
MSL
hPa
Rain
since 9 am
mm
Dir
 
Spd
km/h
Gust
km/h
Spd
kts
Gust
kts
27/11:55pm 17.7 15.2 16.2 91 0.9 E 24 37 13 20 1012.6 1011.7 5.2
27/11:30pm 17.5 17.3 16.7 95 0.5 SE 13 15 7 8 1014.7 1013.8 5.2
27/11:00pm 17.8 15.9 16.7 93 0.7 SW 22 32 12 17 1014.4 1013.5 5.2
27/10:30pm 17.7 17.3 16.2 91 0.9 ENE 13 20 7 11 1014.2 1013.3 5.0
27/10:09pm 17.8 15.4 16.5 92 0.8 E 24 32 13 17 1013.3 1012.4 4.2
27/10:00pm 18.5 17.4 16.3 87 1.3 N 17 20 9 11 1015.4 1014.5 3.4
27/09:45pm 19.3 15.1 16.2 82 1.9 NNW 33 57 18 31 1015.8 1014.9 2.2
27/09:43pm 19.6 15.9 16.1 80 2.1 NNW 30 44 16 24 1015.5 1014.6 2.0
27/09:30pm 19.5 19.4 16.0 80 2.1 N 11 19 6 10 1013.7 1012.8 1.8
27/09:00pm 19.3 19.4 16.5 84 1.7 ESE 11 20 6 11 1012.1 1011.2 1.8
27/08:30pm 18.6 18.4 16.8 89 1.1 SSE 13 19 7 10 1012.8 1011.9 1.8
27/08:00pm 23.1 20.8 14.7 59 5.0 W 20 24 11 13 1014.0 1013.1 0.0
27/07:58pm 23.3 21.0 14.6 58 5.2 W 20 24 11 13 1014.0 1013.1 0.0
27/07:30pm 24.1 22.8 12.4 48 6.8 SE 11 15 6 8 1012.0 1011.1 0.0
27/07:00pm 24.6 24.1 11.9 45 7.3 E 6 11 3 6 1011.8 1010.8 0.0
27/06:30pm 25.2 24.0 11.7 43 7.8 ENE 9 17 5 9 1011.8 1010.8 0.0
27/06:00pm 25.8 23.5 11.6 41 8.2 E 15 22 8 12 1011.5 1010.5 0.0
27/05:30pm 26.4 23.2 11.3 39 8.7 ENE 19 28 10 15 1011.6 1010.6 0.0
27/05:00pm 26.9 22.8 11.4 38 8.9 NE 24 33 13 18 1011.0 1010.1 0.0
27/04:30pm 28.1 24.0 11.6 36 9.6 ENE 24 35 13 19 1011.0 1010.1 0.0
27/04:00pm 29.3 25.2 11.4 33 10.4 NE 24 35 13 19 1011.0 1010.1 0.0
27/03:30pm 29.5 26.1 11.1 32 10.7 ENE 20 33 11 18 1011.4 1010.4 0.0
27/03:00pm 27.9 24.2 10.1 33 10.1 E 20 30 11 16 1011.9 1010.9 0.0
27/02:30pm 27.7 24.3 10.4 34 9.8 E 19 28 10 15 1012.5 1011.6 0.0
27/02:00pm 27.0 23.4 9.8 34 9.7 ENE 19 30 10 16 1013.0 1012.1 0.0
27/01:30pm 26.1 23.1 9.4 35 9.3 ENE 15 20 8 11 1013.4 1012.5 0.0
27/01:00pm 25.8 23.4 10.0 37 8.9 E 13 17 7 9 1013.7 1012.8 0.0
27/12:30pm 25.2 22.8 9.9 38 8.5 NE 13 20 7 11 1013.9 1013.0 0.0
27/12:00pm 25.0 22.1 9.7 38 8.5 E 15 19 8 10 1014.1 1013.2 0.0
27/11:30am 24.0 21.6 9.9 41 7.8 ENE 13 19 7 10 1014.4 1013.5 0.0
27/11:00am 23.7 20.3 9.3 40 7.9 NE 17 24 9 13 1014.9 1014.0 0.0
27/10:30am 23.1 20.2 9.8 43 7.3 NE 15 20 8 11 1015.5 1014.6 0.0
27/10:00am 22.3 19.4 9.5 44 7.0 ENE 15 20 8 11 1015.7 1014.8 0.0
27/09:30am 21.2 18.7 9.8 48 6.2 NE 13 17 7 9 1015.7 1014.8 0.0
27/09:00am 20.6 17.9 10.4 52 5.6 NE 15 20 8 11 1015.9 1015.0 0.0
27/08:30am 19.8 16.2 10.0 53 5.3 NE 19 26 10 14 1016.0 1015.1 0.0
27/08:00am 19.3 16.3 10.6 57 4.8 ENE 17 22 9 12 1016.2 1015.3 0.0
27/07:30am 18.4 15.0 10.5 60 4.3 ENE 19 24 10 13 1016.7 1015.8 0.0
27/07:00am 18.0 15.4 10.6 62 4.0 ENE 15 19 8 10 1016.9 1016.0 0.0
27/06:30am 17.2 14.9 10.6 65 3.6 NNE 13 17 7 9 1017.2 1016.3 0.0
27/06:00am 17.1 14.8 10.5 65 3.6 NE 13 17 7 9 1016.6 1015.7 0.0
27/05:30am 16.9 15.0 10.5 66 3.5 ENE 11 20 6 11 1016.2 1015.3 0.0
27/05:00am 16.7 14.4 10.3 66 3.4 ENE 13 17 7 9 1016.0 1015.1 0.0
27/04:30am 16.8 15.2 10.2 65 3.5 E 9 13 5 7 1016.1 1015.2 0.0
27/04:00am 17.2 15.6 10.3 64 3.7 ENE 9 13 5 7 1016.1 1015.2 0.0
27/03:30am 17.5 15.9 10.1 62 4.0 ENE 9 13 5 7 1016.1 1015.2 0.0
27/03:00am 17.5 15.1 10.1 62 4.0 ENE 13 17 7 9 1015.5 1014.6 0.0
27/02:30am 17.7 14.2 10.1 61 4.1 ENE 19 28 10 15 1015.0 1014.1 0.0
27/02:00am 18.0 14.4 9.9 59 4.3 E 19 28 10 15 1014.6 1013.7 0.0
27/01:30am 18.5 16.1 10.1 58 4.5 ENE 13 24 7 13 1014.6 1013.7 0.0
27/01:00am 18.9 15.8 10.2 57 4.7 ENE 17 26 9 14 1015.0 1014.1 0.0
27/12:30am 19.3 16.2 10.3 56 4.9 ENE 17 30 9 16 1014.9 1014.0 0.0
27/12:00am 20.0 16.0 10.4 54 5.3 E 22 32 12 17 1014.8 1013.9 0.0
 
Date/Time
WST
Temp
°C
App
Temp
°C
Dew
Point
Rel
Hum
%
Delta-T
°C
Wind Press
QNH
hPa
Press
MSL
hPa
Rain
since 9 am
mm
Dir
 
Spd
km/h
Gust
km/h
Spd
kts
Gust
kts
26/11:30pm 20.8 16.4 10.3 51 5.8 E 24 39 13 21 1015.0 1014.1 0.0
26/11:00pm 21.7 17.6 10.2 48 6.3 E 22 39 12 21 1015.3 1014.3 0.0
26/10:30pm 22.2 18.1 8.7 42 7.3 E 20 26 11 14 1015.5 1014.6 0.0
26/10:00pm 22.7 19.0 6.5 35 8.4 E 15 24 8 13 1015.7 1014.8 0.0
26/09:30pm 23.4 19.7 6.2 33 8.9 E 15 20 8 11 1016.1 1015.2 0.0
26/09:00pm 24.0 19.8 5.8 31 9.4 E 17 24 9 13 1016.0 1015.1 0.0
26/08:30pm 24.2 20.3 5.5 30 9.6 E 15 20 8 11 1015.8 1014.9 0.0
26/08:00pm 24.7 20.7 5.0 28 10.0 E 15 20 8 11 1015.2 1014.2 0.0
26/07:30pm 25.2 21.9 4.3 26 10.6 E 11 17 6 9 1015.2 1014.2 0.0
26/07:00pm 26.2 22.5 4.6 25 11.0 E 13 17 7 9 1014.9 1014.0 0.0
26/06:30pm 27.1 23.5 4.8 24 11.5 E 13 20 7 11 1014.5 1013.6 0.0
26/06:00pm 27.9 24.0 5.5 24 11.7 E 15 24 8 13 1014.6 1013.7 0.0
26/05:30pm 28.6 23.0 5.5 23 12.2 NE 24 32 13 17 1014.6 1013.7 0.0
26/05:00pm 30.1 25.1 4.7 20 13.3 ENE 20 28 11 15 1014.5 1013.6 0.0
26/04:30pm 29.7 24.7 4.4 20 13.2 NE 20 30 11 16 1014.7 1013.8 0.0

Other Formats:

Comma delimited format used in spreadsheet applications
http://www.bom.gov.au/fwo/IDW60801/IDW60801.95642.axf

JavaScript Object Notation format (JSON) in row-major order
http://www.bom.gov.au/fwo/IDW60801/IDW60801.95642.json